Terminal Aerodrome Forecast
Issued by NWS Shreveport, LA

Home | Current Version | Previous Version | Text Only | Print | Product List | Glossary On
Versions: 1 2 3 4 5 6 7 8 9 10 11 12 13 14 15 16 17 18 19
000
FTUS44 KSHV 252355
TAFGGG
TAF
KGGG 252355Z 2600/2624 19003KT P6SM VCTS SCT060CB BKN110 BKN250
     FM260300 10005KT P6SM FEW060 BKN150
      TEMPO 2603/2605 -TSRA BKN060CB BKN150
     FM260600 15003KT P6SM SCT150 BKN250
     FM261200 VRB03KT P6SM SCT150 BKN250
     FM262000 11006KT P6SM VCTS SCT060CB SCT250=

USA.gov is the U.S. government's official web portal to all federal, state and local government web resources and services.